Latest Coastal Weather Observations for Bougainville Reef

IDQ60701

Issued at 5:45 am EST Friday 1 August 2014 (issued every 10 minutes, with the page automatically refreshed every 10 minutes)

About coastal observations | Map of coastal stations | Coastal observations for QLD | Marine services | Other Formats
Station Details ID: 200840 Name: BOUGAINVILLE REEF Lat: -15.49 Lon: 147.12 Height: 0.0 m
Data from the previous 72 hours. | See also: Recent months for locations in Queensland
Date/Time
EST
Temp

°C
Wind Pressure Rain
since 9am
mm
Weather Cloud Vis
km
Sea
Height
m
Swell
Dir
 
Speed
knots
Gust
knots
hPa Trend Height
m
Period
s
Dir
01/05:30am 23.6 ESE 12 14 1014.9 - - - - - - - - -
01/05:00am 23.6 ESE 12 15 1014.7 - - - - - - - - -
01/04:30am 23.7 ESE 12 15 1014.9 - - - - - - - - -
01/04:00am 23.7 ESE 13 14 1014.8 - - - - - - - - -
01/03:30am 23.7 ESE 13 15 1014.9 - - - - - - - - -
01/03:00am 23.8 ESE 15 17 1015.0 - - - - - - - - -
01/02:30am 23.8 ESE 15 17 1015.3 - - - - - - - - -
01/02:00am 23.9 ESE 16 19 1015.7 - - - - - - - - -
01/01:30am 23.7 ESE 16 19 1016.0 - - - - - - - - -
01/01:00am 23.9 ENE 13 17 1016.4 - - - - - - - - -
01/12:30am 23.8 E 13 18 1016.7 - - - - - - - - -
01/12:00am 24.0 ENE 14 17 1016.9 - - - - - - - - -
 
Date/Time
EST
Temp

°C
Wind Pressure Rain
since 9am
mm
Weather Cloud Vis
km
Sea
Height
m
Swell
Dir
 
Speed
knots
Gust
knots
hPa Trend Height
m
Period
s
Dir
31/11:30pm 23.9 E 13 17 1017.0 - - - - - - - - -
31/11:00pm 23.9 ENE 13 17 1017.0 - - - - - - - - -
31/10:30pm 24.2 NE 13 17 1017.1 - - - - - - - - -
31/10:00pm 24.1 NE 14 16 1016.9 - - - - - - - - -
31/09:30pm 24.2 E 12 15 1016.9 - - - - - - - - -
31/09:00pm 24.5 E 12 16 1016.5 - - - - - - - - -
31/08:30pm 24.3 E 12 15 1016.4 - - - - - - - - -
31/08:00pm 24.4 ENE 13 16 1015.8 - - - - - - - - -
31/07:30pm 24.4 ENE 13 16 1015.8 - - - - - - - - -
31/07:00pm 24.3 NE 14 18 1015.4 - - - - - - - - -
31/06:30pm 24.4 E 14 16 1015.3 - - - - - - - - -
31/06:00pm 24.4 E 12 16 1015.2 - - - - - - - - -
31/05:30pm 24.4 ENE 11 14 1015.2 - - - - - - - - -
31/05:00pm 24.5 ESE 12 14 1014.9 - - - - - - - - -
31/04:30pm 24.6 ESE 12 14 1014.9 - - - - - - - - -
31/04:00pm 24.5 E 12 15 1014.8 - - - - - - - - -
31/03:30pm 24.8 NE 12 15 1014.8 - - - - - - - - -
31/03:00pm 24.7 E 13 14 1014.6 - - - - - - - - -
31/02:30pm 24.7 E 11 14 1014.8 - - - - - - - - -
31/02:00pm 24.3 E 12 15 1015.1 - - - - - - - - -
31/01:30pm 24.4 ESE 14 16 1015.4 - - - - - - - - -
31/01:00pm 24.6 E 12 15 1015.8 - - - - - - - - -
31/12:30pm 24.4 E 12 14 1016.1 - - - - - - - - -
31/12:00pm 24.3 E 12 14 1016.5 - - - - - - - - -
31/11:30am 24.1 E 12 14 1016.8 - - - - - - - - -
31/11:00am 24.2 ESE 14 15 1017.0 - - - - - - - - -
31/10:30am 24.3 ESE 14 16 1017.3 - - - - - - - - -
31/10:00am 24.3 ESE 14 17 1017.2 - - - - - - - - -
31/09:30am 24.3 ESE 15 17 1017.3 - - - - - - - - -
31/09:00am 24.3 ESE 16 18 1017.1 - - - - - - - - -
31/08:30am 24.5 ESE 16 17 1017.0 - - - - - - - - -
31/08:00am 24.2 ESE 17 18 1016.7 - - - - - - - - -
31/07:30am 24.3 ESE 17 19 1016.8 - - - - - - - - -
31/07:00am 24.1 ESE 18 20 1016.4 - - - - - - - - -
31/06:30am 24.2 ESE 18 21 1016.4 - - - - - - - - -
31/06:00am 24.1 ESE 18 22 1016.1 - - - - - - - - -
31/05:30am 23.9 ESE 17 20 1016.1 - - - - - - - - -
31/05:00am 24.0 ESE 18 21 1016.0 - - - - - - - - -
31/04:30am 24.2 ESE 17 20 1016.0 - - - - - - - - -
31/04:00am 24.0 ESE 18 21 1015.9 - - - - - - - - -
31/03:30am 24.1 ESE 17 21 1016.0 - - - - - - - - -
31/03:00am 24.1 ESE 19 23 1015.9 - - - - - - - - -
31/02:30am 24.0 ESE 19 22 1016.1 - - - - - - - - -
31/02:00am 24.2 ESE 20 22 1016.3 - - - - - - - - -
31/01:30am 24.1 ESE 20 23 1016.5 - - - - - - - - -
31/01:00am 24.3 ESE 22 26 1016.7 - - - - - - - - -
31/12:30am 24.1 ESE 20 23 1016.9 - - - - - - - - -
31/12:00am 24.3 ESE 20 25 1016.9 - - - - - - - - -
 
Date/Time
EST
Temp

°C
Wind Pressure Rain
since 9am
mm
Weather Cloud Vis
km
Sea
Height
m
Swell
Dir
 
Speed
knots
Gust
knots
hPa Trend Height
m
Period
s
Dir
30/11:30pm 24.2 ESE 21 25 1017.0 - - - - - - - - -
30/11:00pm 24.0 ESE 19 24 1017.0 - - - - - - - - -
30/10:30pm 24.1 ESE 18 22 1017.3 - - - - - - - - -
30/10:00pm 23.8 SE 17 23 1017.3 - - - - - - - - -
30/09:30pm 24.0 ESE 16 21 1017.4 - - - - - - - - -
30/09:00pm 23.7 ESE 17 22 1017.1 - - - - - - - - -
30/08:30pm 22.9 ESE 19 23 1017.0 - - - - - - - - -
30/08:00pm 23.9 ESE 18 23 1016.6 - - - - - - - - -
30/07:30pm 23.8 ESE 19 22 1016.5 - - - - - - - - -
30/07:00pm 23.6 ESE 18 23 1016.1 - - - - - - - - -
30/06:30pm 23.6 ESE 18 24 1016.0 - - - - - - - - -
30/06:00pm 23.6 ESE 20 23 1015.7 - - - - - - - - -
30/05:30pm 23.8 ESE 20 23 1015.8 - - - - - - - - -
30/05:00pm 24.1 ESE 21 24 1015.6 - - - - - - - - -
30/04:30pm 23.7 ESE 17 21 1015.6 - - - - - - - - -
30/04:00pm 23.5 SSE 12 17 1015.5 - - - - - - - - -
30/03:30pm 23.8 SE 13 19 1015.6 - - - - - - - - -
30/03:00pm 23.6 SE 16 19 1015.5 - - - - - - - - -
30/02:30pm 23.6 ESE 17 21 1015.7 - - - - - - - - -
30/02:00pm 23.9 ESE 17 19 1016.0 - - - - - - - - -
30/01:30pm 24.0 ESE 19 22 1016.3 - - - - - - - - -
30/01:00pm 24.0 ESE 18 23 1016.6 - - - - - - - - -
30/12:30pm 23.8 ESE 21 25 1016.8 - - - - - - - - -
30/12:00pm 23.3 ESE 22 27 1017.2 - - - - - - - - -
30/11:30am 23.7 ESE 24 27 1017.6 - - - - - - - - -
30/11:00am 23.9 ESE 26 30 1017.9 - - - - - - - - -
30/10:30am 24.1 ESE 23 25 1018.4 - - - - - - - - -
30/10:00am 24.0 ESE 24 28 1018.5 - - - - - - - - -
30/09:30am 24.3 ESE 25 29 1018.6 - - - - - - - - -
30/09:00am 24.1 ESE 24 29 1018.4 - - - - - - - - -
30/08:30am 24.2 E 22 27 1018.4 - - - - - - - - -
30/08:24am 24.3 E 20 28 1018.4 - - - - - - - - -
30/08:23am 24.1 N 22 28 1018.4 - - - - - - - - -
30/08:22am 24.1 NNW 22 28 1018.4 - - - - - - - - -
30/08:00am 24.0 ESE 21 27 1018.2 - - - - - - - - -
30/07:58am 23.9 ESE 24 27 1018.3 - - - - - - - - -
30/07:57am 24.0 NNE 22 26 1018.3 - - - - - - - - -
30/07:56am 24.2 N 21 26 1018.3 - - - - - - - - -
30/07:30am 24.1 ESE 21 25 1018.1 - - - - - - - - -
30/07:00am 23.9 ESE 22 26 1017.7 - - - - - - - - -
30/06:30am 24.0 ESE 22 27 1017.5 - - - - - - - - -
30/06:00am 23.9 ESE 22 26 1017.1 - - - - - - - - -
30/05:52am 23.8 SE 20 26 1017.2 - - - - - - - - -
30/05:30am 23.8 E 20 23 1017.3 - - - - - - - - -
30/05:28am 23.9 E 21 23 1017.2 - - - - - - - - -
30/05:10am 23.9 SE 20 24 1017.0 - - - - - - - - -
30/05:05am 23.8 E 20 24 1017.0 - - - - - - - - -
30/05:00am 23.9 E 19 23 1016.8 - - - - - - - - -
30/04:51am 23.9 ESE 17 22 1016.9 - - - - - - - - -
30/04:49am 23.8 ENE 20 23 1016.8 - - - - - - - - -
30/04:30am 23.8 ESE 18 21 1016.8 - - - - - - - - -
30/04:00am 23.5 ESE 18 22 1016.7 - - - - - - - - -
30/03:30am 23.7 ESE 18 23 1016.7 - - - - - - - - -
30/03:00am 23.4 ESE 18 22 1017.0 - - - - - - - - -
30/02:30am 23.6 ESE 16 20 1017.2 - - - - - - - - -
30/02:00am 24.0 ESE 15 19 1017.5 - - - - - - - - -
30/01:30am 23.7 SE 16 22 1017.8 - - - - - - - - -
30/01:00am 23.8 ESE 18 21 1017.9 - - - - - - - - -
30/12:30am 23.8 ESE 20 24 1018.3 - - - - - - - - -
30/12:00am 23.8 ESE 18 23 1018.4 - - - - - - - - -
 
Date/Time
EST
Temp

°C
Wind Pressure Rain
since 9am
mm
Weather Cloud Vis
km
Sea
Height
m
Swell
Dir
 
Speed
knots
Gust
knots
hPa Trend Height
m
Period
s
Dir
29/11:30pm 23.8 ESE 18 22 1018.5 - - - - - - - - -
29/11:00pm 23.7 ESE 18 22 1018.5 - - - - - - - - -
29/10:30pm 23.9 E 18 22 1018.6 - - - - - - - - -
29/10:00pm 23.8 ESE 18 22 1018.6 - - - - - - - - -
29/09:30pm 24.0 ESE 19 22 1018.6 - - - - - - - - -
29/09:00pm 23.9 ESE 19 21 1018.3 - - - - - - - - -
29/08:30pm 24.0 E 18 22 1018.3 - - - - - - - - -
29/08:00pm 24.0 E 18 19 1017.9 - - - - - - - - -
29/07:30pm 23.9 E 16 19 1017.8 - - - - - - - - -
29/07:00pm 23.8 E 15 21 1017.4 - - - - - - - - -
29/06:30pm 23.9 ESE 15 19 1017.4 - - - - - - - - -
29/06:00pm 23.8 SE 15 19 1017.1 - - - - - - - - -
29/05:30pm 24.0 SE 14 18 1017.1 - - - - - - - - -
29/05:00pm 24.0 E 15 19 1016.8 - - - - - - - - -
29/04:30pm 23.9 ESE 15 18 1016.8 - - - - - - - - -
29/04:00pm 24.0 ESE 15 19 1016.7 - - - - - - - - -
29/03:30pm 23.8 ESE 15 21 1016.8 - - - - - - - - -
29/03:00pm 23.8 E 15 20 1016.8 - - - - - - - - -
29/02:30pm 24.0 E 17 19 1017.1 - - - - - - - - -
29/02:00pm 24.4 ESE 16 19 1017.4 - - - - - - - - -
29/01:30pm 24.5 ESE 16 22 1017.6 - - - - - - - - -
29/01:00pm 23.9 ESE 17 20 1018.0 - - - - - - - - -
29/12:30pm 24.0 ESE 18 22 1018.5 - - - - - - - - -
29/12:00pm 23.8 ESE 20 24 1019.0 - - - - - - - - -
29/11:30am 24.1 ESE 20 24 1019.3 - - - - - - - - -
29/11:00am 24.0 ESE 21 27 1019.4 - - - - - - - - -
29/10:30am 23.8 ESE 21 26 1019.7 - - - - - - - - -
29/10:00am 24.0 ESE 22 26 1019.5 - - - - - - - - -
29/09:30am 24.0 ESE 20 24 1019.7 - - - - - - - - -
29/09:00am 24.1 ESE 21 26 1019.3 - - - - - - - - -
29/08:30am 24.1 ESE 21 26 1019.3 - - - - - - - - -
29/08:00am 23.9 ESE 20 26 1018.7 - - - - - - - - -
29/07:30am 24.0 ESE 21 26 1018.5 - - - - - - - - -
29/07:00am 23.7 ESE 21 25 1018.0 - - - - - - - - -
29/06:31am 23.9 E 19 24 1017.8 - - - - - - - - -
29/06:30am 23.6 NE 21 24 1017.8 - - - - - - - - -
29/06:29am 23.8 NNE 21 24 1017.8 - - - - - - - - -
29/06:00am 23.6 ESE 20 26 1017.4 - - - - - - - - -

Other Formats:

Comma delimited format used in spreadsheet applications
http://www.bom.gov.au/fwo/IDQ60701/IDQ60701.95288.axf

JavaScript Object Notation format (JSON) in row-major order
http://www.bom.gov.au/fwo/IDQ60701/IDQ60701.95288.json